Time;durP1;ratioP1;P1;durP2;ratioP2;P2;SDS_P1;SDS_P2;PMS_P1;PMS_P2;Temp;Humidity;BMP_temperature;BMP_pressure;BME280_temperature;BME280_humidity;BME280_pressure;Samples;Min_cycle;Max_cycle;Signal;HPM_P1;HPM_P2
2023/03/17 00:00:38;;;;;;;4.30;1.70;;;;;;;4.20;73.70;101497.34;5044882;28;20029;-72
2023/03/17 00:03:04;;;;;;;4.63;1.80;;;;;;;3.99;73.88;101499.28;5027233;28;20029;-72
2023/03/17 00:05:32;;;;;;;5.50;1.95;;;;;;;3.86;75.01;101493.06;5042833;28;20037;-71
2023/03/17 00:08:13;;;;;;;6.43;2.28;;;;;;;3.65;76.27;101493.22;5039792;28;20039;-72
2023/03/17 00:10:38;;;;;;;9.15;2.50;;;;;;;3.53;76.46;101493.81;5040227;28;20041;-72
2023/03/17 00:13:05;;;;;;;6.10;2.83;;;;;;;3.40;77.74;101495.31;5040389;28;20043;-72
2023/03/17 00:15:31;;;;;;;7.75;3.45;;;;;;;3.33;77.82;101499.06;5041587;28;20029;-72
2023/03/17 00:17:57;;;;;;;6.70;2.95;;;;;;;3.24;78.14;101491.81;5040922;28;20114;-71
2023/03/17 00:20:31;;;;;;;5.63;2.95;;;;;;;3.17;78.07;101493.84;5039981;28;20477;-72
2023/03/17 00:22:58;;;;;;;9.02;4.20;;;;;;;3.11;78.85;101488.13;5036340;28;20490;-71
2023/03/17 00:25:29;;;;;;;9.10;3.47;;;;;;;3.06;78.99;101497.81;5042865;28;20032;-72
2023/03/17 00:27:57;;;;;;;10.25;3.70;;;;;;;3.03;78.80;101503.94;5042240;28;20098;-72
2023/03/17 00:30:23;;;;;;;6.28;3.13;;;;;;;3.00;78.92;101494.63;5028962;28;20033;-71
2023/03/17 00:32:51;;;;;;;6.07;2.78;;;;;;;3.11;77.89;101491.56;5042998;28;20108;-71
2023/03/17 00:35:20;;;;;;;3.90;2.08;;;;;;;3.51;73.83;101485.31;5039434;28;20104;-72
2023/03/17 00:37:46;;;;;;;3.17;1.30;;;;;;;3.71;72.39;101486.94;5043380;28;20119;-71
2023/03/17 00:40:18;;;;;;;2.22;0.90;;;;;;;3.84;70.71;101487.13;5041569;28;20037;-72
2023/03/17 00:42:43;;;;;;;4.22;1.63;;;;;;;3.81;72.14;101484.72;5039550;28;20068;-72
2023/03/17 00:45:10;;;;;;;4.07;1.95;;;;;;;3.62;73.73;101477.91;5040784;28;20128;-71
2023/03/17 00:47:36;;;;;;;4.38;1.00;;;;;;;3.66;71.73;101479.44;5041977;28;20056;-72
2023/03/17 00:50:03;;;;;;;2.83;0.70;;;;;;;3.76;70.41;101476.41;5042781;28;20088;-72
2023/03/17 00:52:29;;;;;;;2.38;1.13;;;;;;;3.79;70.59;101468.47;5038823;28;20089;-72
2023/03/17 00:54:54;;;;;;;5.05;1.38;;;;;;;3.78;70.40;101461.69;5038620;28;20937;-72
2023/03/17 00:57:20;;;;;;;2.08;0.85;;;;;;;3.85;68.62;101469.00;5044654;28;20059;-72
2023/03/17 00:59:45;;;;;;;2.67;0.70;;;;;;;4.01;67.67;101466.50;5040835;28;20048;-72
2023/03/17 01:24:22;;;;;;;1.40;0.43;;;;;;;4.29;62.74;101459.00;5081655;27;20499;-72
2023/03/17 01:26:47;;;;;;;2.00;0.50;;;;;;;4.20;63.38;101462.06;5081831;28;20032;-72
2023/03/17 01:29:13;;;;;;;3.85;0.65;;;;;;;4.13;64.29;101452.97;5080103;28;20034;-71
2023/03/17 01:31:38;;;;;;;2.08;0.40;;;;;;;4.07;64.29;101455.88;5081345;28;20024;-72
2023/03/17 01:34:05;;;;;;;5.53;0.52;;;;;;;4.01;65.00;101453.59;5074849;28;20037;-72
2023/03/17 01:36:30;;;;;;;1.20;0.43;;;;;;;4.03;64.49;101461.28;5076604;28;20028;-71
2023/03/17 01:38:56;;;;;;;2.35;0.60;;;;;;;3.98;64.26;101458.91;5074486;28;20041;-72
2023/03/17 01:41:21;;;;;;;3.25;0.70;;;;;;;3.95;64.51;101448.75;5075908;28;20089;-71
2023/03/17 01:43:47;;;;;;;3.63;0.80;;;;;;;3.89;65.22;101449.06;5074662;28;20032;-71
2023/03/17 01:46:24;;;;;;;2.65;1.00;;;;;;;3.82;65.44;101440.81;5075920;28;20040;-72
2023/03/17 01:49:12;;;;;;;2.35;0.45;;;;;;;3.80;65.38;101444.38;5077659;28;20048;-72
2023/03/17 01:51:45;;;;;;;2.45;0.55;;;;;;;3.82;65.05;101443.38;5080630;28;20028;-71
2023/03/17 01:54:15;;;;;;;2.25;0.73;;;;;;;3.78;64.51;101439.28;5078207;28;20051;-72
2023/03/17 01:56:47;;;;;;;1.30;0.50;;;;;;;3.95;63.45;101441.84;5082364;28;20032;-71
2023/03/17 01:59:29;;;;;;;2.10;0.32;;;;;;;3.91;63.10;101439.50;5076646;28;20536;-71
2023/03/17 02:02:02;;;;;;;2.25;0.50;;;;;;;3.72;65.54;101431.06;5078654;28;20039;-72
2023/03/17 02:04:28;;;;;;;3.10;0.70;;;;;;;3.48;66.13;101433.09;5084663;28;20027;-71
2023/03/17 02:06:56;;;;;;;2.25;0.52;;;;;;;3.28;67.21;101436.69;5083457;28;20091;-71
2023/03/17 02:09:22;;;;;;;3.00;0.40;;;;;;;3.42;65.79;101434.25;5079981;28;20077;-71
2023/03/17 02:11:48;;;;;;;1.75;0.40;;;;;;;3.73;63.93;101428.41;5083348;28;20016;-72
2023/03/17 02:14:13;;;;;;;2.80;0.80;;;;;;;3.74;63.66;101424.91;5075405;28;20175;-72
2023/03/17 02:16:39;;;;;;;2.22;0.68;;;;;;;3.81;62.95;101422.84;5076376;28;20027;-72
2023/03/17 02:19:04;;;;;;;1.20;0.28;;;;;;;3.80;62.37;101421.16;5078872;28;20048;-71
2023/03/17 02:21:34;;;;;;;2.25;0.30;;;;;;;3.90;62.08;101412.06;5073845;28;20120;-72
2023/03/17 02:24:04;;;;;;;0.98;0.30;;;;;;;3.97;60.87;101410.84;5071343;28;20041;-72
2023/03/17 02:26:33;;;;;;;2.55;0.43;;;;;;;3.95;60.93;101412.66;5066707;28;20025;-72
2023/03/17 02:28:58;;;;;;;3.40;1.00;;;;;;;3.97;59.78;101418.56;5066444;28;20493;-72
2023/03/17 02:31:25;;;;;;;1.38;0.40;;;;;;;3.94;60.71;101421.31;5062760;28;20024;-71
2023/03/17 02:33:51;;;;;;;7.80;0.52;;;;;;;3.89;61.07;101416.38;5073481;28;20124;-72
2023/03/17 02:36:16;;;;;;;2.42;0.40;;;;;;;3.90;60.73;101417.22;5070984;28;20133;-71
2023/03/17 02:38:42;;;;;;;1.80;0.50;;;;;;;3.89;61.16;101412.97;5067149;28;20041;-72
2023/03/17 02:41:08;;;;;;;2.30;0.55;;;;;;;3.82;61.57;101422.75;5066464;28;20115;-71
2023/03/17 02:43:34;;;;;;;1.65;0.47;;;;;;;3.86;61.45;101428.59;5063711;28;20477;-71
2023/03/17 02:46:00;;;;;;;1.17;0.50;;;;;;;3.76;61.69;101430.00;5060443;28;20029;-71
2023/03/17 02:48:26;;;;;;;1.90;0.50;;;;;;;3.66;61.66;101429.63;5063351;28;20093;-72
2023/03/17 02:50:51;;;;;;;1.00;0.30;;;;;;;3.64;61.79;101429.69;5061573;28;20039;-71
2023/03/17 02:53:17;;;;;;;1.30;0.30;;;;;;;3.70;61.26;101431.13;5068324;28;20027;-71
2023/03/17 02:55:42;;;;;;;2.13;0.40;;;;;;;3.69;62.36;101424.31;5064188;28;20028;-71
2023/03/17 02:58:08;;;;;;;2.33;0.85;;;;;;;3.68;62.17;101425.22;5068489;28;20070;-71
2023/03/17 03:00:34;;;;;;;1.52;0.38;;;;;;;3.62;62.53;101434.09;5064070;28;20047;-72
2023/03/17 03:02:59;;;;;;;0.88;0.30;;;;;;;3.55;62.55;101419.84;5065857;28;20029;-72
2023/03/17 03:05:25;;;;;;;2.70;0.50;;;;;;;3.61;62.44;101431.59;5067167;28;20029;-71
2023/03/17 03:07:51;;;;;;;1.00;0.43;;;;;;;3.64;62.29;101434.03;5063934;28;20024;-71
2023/03/17 03:10:17;;;;;;;3.17;0.50;;;;;;;3.69;62.09;101428.63;5060949;28;20029;-71
2023/03/17 03:12:43;;;;;;;2.95;0.50;;;;;;;3.65;61.86;101423.63;5064512;28;20073;-71
2023/03/17 03:15:10;;;;;;;3.72;0.43;;;;;;;3.46;62.83;101434.91;5061227;28;20115;-72
2023/03/17 03:17:35;;;;;;;3.03;0.50;;;;;;;3.39;63.36;101434.38;5061073;28;20024;-71
2023/03/17 03:20:02;;;;;;;3.17;0.40;;;;;;;3.23;63.71;101428.34;5059553;28;20419;-71
2023/03/17 03:22:27;;;;;;;1.52;0.43;;;;;;;3.48;62.65;101433.94;5064245;28;20464;-71
2023/03/17 03:24:52;;;;;;;1.58;0.50;;;;;;;3.56;62.01;101429.25;5059426;28;20116;-71
2023/03/17 03:27:18;;;;;;;1.63;0.32;;;;;;;3.60;61.24;101430.75;5060099;28;20043;-71
2023/03/17 03:29:43;;;;;;;1.55;0.40;;;;;;;3.62;60.68;101428.94;5061769;28;20032;-71
2023/03/17 03:32:09;;;;;;;1.08;0.30;;;;;;;3.69;60.05;101426.06;5061871;28;20111;-71
2023/03/17 03:34:35;;;;;;;3.28;0.93;;;;;;;3.65;60.13;101420.22;5059588;28;20047;-72
2023/03/17 03:37:00;;;;;;;1.92;0.50;;;;;;;3.71;59.92;101434.56;5059923;28;20032;-71
2023/03/17 03:39:26;;;;;;;3.35;0.45;;;;;;;3.75;59.91;101428.34;5064736;28;20031;-71
2023/03/17 03:41:54;;;;;;;2.08;0.40;;;;;;;3.67;60.55;101426.13;5055744;28;20343;-71
2023/03/17 03:44:19;;;;;;;2.75;0.40;;;;;;;3.63;61.20;101422.03;5055550;28;20043;-72
2023/03/17 03:46:45;;;;;;;0.75;0.30;;;;;;;3.61;60.25;101429.03;5060858;28;20025;-71
2023/03/17 03:49:10;;;;;;;1.83;0.50;;;;;;;3.59;61.16;101428.25;5065381;28;20115;-72
2023/03/17 03:51:36;;;;;;;1.92;0.40;;;;;;;3.56;60.98;101426.66;5064879;28;20063;-71
2023/03/17 03:54:01;;;;;;;2.70;0.55;;;;;;;3.50;61.58;101428.72;5068895;28;20492;-72
2023/03/17 03:56:27;;;;;;;1.50;0.40;;;;;;;3.44;61.76;101419.53;5068814;28;20029;-72
2023/03/17 03:58:52;;;;;;;2.83;0.55;;;;;;;3.36;61.92;101416.50;5066996;28;20028;-71
2023/03/17 04:01:18;;;;;;;2.75;0.40;;;;;;;3.34;62.12;101408.00;5065403;28;20032;-71
2023/03/17 04:03:46;;;;;;;2.08;0.60;;;;;;;3.33;62.19;101417.47;5066949;28;20029;-71
2023/03/17 04:06:11;;;;;;;1.98;0.50;;;;;;;3.31;61.94;101408.16;5060035;28;20052;-72
2023/03/17 04:08:37;;;;;;;1.58;0.30;;;;;;;3.35;62.14;101407.09;5060328;28;20052;-72
2023/03/17 04:11:02;;;;;;;3.95;0.60;;;;;;;3.31;62.09;101403.84;5063734;28;20358;-71
2023/03/17 04:13:28;;;;;;;2.65;0.35;;;;;;;3.30;62.43;101401.38;5063523;28;20048;-71
2023/03/17 04:15:53;;;;;;;1.52;0.45;;;;;;;3.31;62.22;101403.84;5071469;28;20107;-72
2023/03/17 04:18:18;;;;;;;5.15;0.50;;;;;;;3.34;61.96;101408.84;5070172;28;20024;-72
2023/03/17 04:20:44;;;;;;;0.98;0.30;;;;;;;3.26;62.21;101410.16;5063814;28;20089;-72
2023/03/17 04:23:10;;;;;;;1.92;0.43;;;;;;;3.24;62.21;101410.22;5053113;28;20041;-71
2023/03/17 04:25:36;;;;;;;2.63;0.50;;;;;;;3.21;62.73;101405.22;5058018;28;20028;-71
2023/03/17 04:28:02;;;;;;;2.45;0.35;;;;;;;3.17;62.91;101405.44;5062477;28;20044;-72
2023/03/17 04:30:28;;;;;;;1.65;0.50;;;;;;;3.10;63.71;101404.06;5058066;28;20033;-71
2023/03/17 04:32:53;;;;;;;2.00;0.47;;;;;;;2.99;64.07;101410.56;5058802;28;20430;-72
2023/03/17 04:35:21;;;;;;;2.50;0.73;;;;;;;2.99;63.93;101408.00;5058888;28;20493;-71
2023/03/17 04:37:47;;;;;;;2.60;0.50;;;;;;;2.91;63.93;101397.22;5056036;28;20037;-71
2023/03/17 04:40:14;;;;;;;1.52;0.30;;;;;;;2.87;64.09;101392.28;5060028;28;25320;-72
2023/03/17 04:42:40;;;;;;;3.45;0.40;;;;;;;2.87;63.98;101406.00;5057084;28;20021;-72
2023/03/17 04:45:08;;;;;;;2.17;0.50;;;;;;;2.96;63.56;101400.41;5062677;28;20496;-71
2023/03/17 04:47:34;;;;;;;1.00;0.32;;;;;;;2.95;63.67;101398.75;5053665;28;20142;-71
2023/03/17 04:50:00;;;;;;;1.00;0.30;;;;;;;2.91;63.60;101396.38;5054399;28;20032;-71
2023/03/17 04:52:25;;;;;;;3.05;0.40;;;;;;;2.84;64.33;101408.72;5054248;28;20362;-71
2023/03/17 04:54:52;;;;;;;2.35;0.80;;;;;;;2.79;65.62;101402.97;5056845;28;20804;-71
2023/03/17 04:57:17;;;;;;;2.35;0.80;;;;;;;2.51;66.52;101400.84;5065769;28;20052;-71
2023/03/17 04:59:43;;;;;;;3.78;1.63;;;;;;;2.32;67.66;101398.28;5063041;28;20100;-71
2023/03/17 05:02:08;;;;;;;5.22;0.90;;;;;;;2.14;68.25;101399.09;5060998;28;20032;-72
2023/03/17 05:04:34;;;;;;;2.92;0.75;;;;;;;2.12;68.73;101405.19;5064360;28;20515;-72
2023/03/17 05:07:00;;;;;;;3.90;1.02;;;;;;;2.26;67.37;101421.69;5052146;28;20032;-71
2023/03/17 05:09:27;;;;;;;3.03;0.52;;;;;;;2.40;66.43;101410.75;5057379;28;20045;-71
2023/03/17 05:11:53;;;;;;;1.10;0.40;;;;;;;2.51;66.24;101403.41;5059359;28;20105;-71
2023/03/17 05:14:18;;;;;;;2.63;0.30;;;;;;;2.60;66.69;101417.59;5062380;28;20025;-71
2023/03/17 05:16:47;;;;;;;1.33;0.43;;;;;;;2.66;66.37;101412.16;5054026;28;20119;-71
2023/03/17 05:19:12;;;;;;;2.55;0.60;;;;;;;2.67;66.49;101409.53;5054072;28;20389;-72
2023/03/17 05:21:38;;;;;;;1.60;0.63;;;;;;;2.64;66.67;101419.13;5055891;28;20028;-72
2023/03/17 05:24:05;;;;;;;2.70;0.60;;;;;;;2.59;66.89;101405.63;5053850;28;20079;-66
2023/03/17 05:26:30;;;;;;;2.20;0.60;;;;;;;2.64;66.26;101413.97;5058418;28;20082;-72
2023/03/17 05:28:56;;;;;;;5.40;0.70;;;;;;;2.67;66.93;101416.41;5058325;28;20037;-72
2023/03/17 05:31:21;;;;;;;2.83;0.65;;;;;;;2.68;66.69;101420.66;5054011;28;20099;-72
2023/03/17 05:33:48;;;;;;;1.70;0.60;;;;;;;2.68;67.03;101420.66;5061211;28;20078;-72
2023/03/17 05:36:14;;;;;;;3.33;0.70;;;;;;;2.66;67.12;101423.28;5062629;28;20036;-71
2023/03/17 05:38:40;;;;;;;3.70;1.00;;;;;;;2.74;66.18;101414.38;5059706;28;20037;-70
2023/03/17 05:41:06;;;;;;;7.28;0.98;;;;;;;2.85;65.31;101414.69;5061876;28;20028;-71
2023/03/17 05:43:31;;;;;;;3.92;0.93;;;;;;;2.85;65.33;101418.09;5059301;28;20401;-73
2023/03/17 05:45:57;;;;;;;2.72;0.60;;;;;;;2.90;64.73;101416.16;5066304;28;20115;-72
2023/03/17 05:48:23;;;;;;;2.40;0.50;;;;;;;2.94;64.53;101421.97;5064630;28;20040;-72
2023/03/17 05:50:48;;;;;;;2.42;0.52;;;;;;;3.01;63.90;101418.22;5061067;28;20032;-71
2023/03/17 05:53:15;;;;;;;4.70;0.60;;;;;;;3.05;64.03;101424.06;5062840;28;20059;-71
2023/03/17 05:55:41;;;;;;;2.45;0.82;;;;;;;3.07;63.95;101419.66;5055514;28;20549;-72
2023/03/17 05:58:06;;;;;;;4.88;0.93;;;;;;;3.10;64.34;101429.81;5061609;28;20059;-72
2023/03/17 06:00:32;;;;;;;2.38;0.50;;;;;;;3.03;65.26;101426.69;5063883;28;20025;-72
2023/03/17 06:02:58;;;;;;;7.20;1.00;;;;;;;2.96;65.32;101425.31;5061404;28;20032;-72
2023/03/17 06:05:23;;;;;;;2.35;0.70;;;;;;;2.99;65.65;101417.44;5056729;28;20033;-72
2023/03/17 06:07:48;;;;;;;1.65;0.50;;;;;;;3.04;64.72;101418.06;5067234;28;20062;-72
2023/03/17 06:10:14;;;;;;;3.03;0.80;;;;;;;3.10;64.93;101416.94;5061190;28;20130;-72
2023/03/17 06:12:39;;;;;;;3.88;0.80;;;;;;;3.15;64.68;101415.00;5063632;28;20095;-72
2023/03/17 06:15:07;;;;;;;3.80;0.80;;;;;;;3.23;64.96;101421.44;5054776;28;20037;-72
2023/03/17 06:17:33;;;;;;;4.22;1.10;;;;;;;3.35;63.63;101412.25;5061214;28;20041;-73
2023/03/17 06:19:58;;;;;;;2.28;0.70;;;;;;;3.47;62.77;101409.09;5062795;28;20036;-71
2023/03/17 06:22:23;;;;;;;2.88;0.63;;;;;;;3.55;62.95;101406.13;5059380;28;20529;-72
2023/03/17 06:24:49;;;;;;;3.88;0.60;;;;;;;3.64;63.21;101403.94;5055512;28;20025;-72
2023/03/17 06:27:14;;;;;;;1.67;0.63;;;;;;;3.82;62.07;101409.03;5055653;28;20548;-72
2023/03/17 06:29:40;;;;;;;2.50;0.90;;;;;;;3.95;59.91;101402.34;5059535;28;20032;-72
2023/03/17 06:32:08;;;;;;;4.47;0.88;;;;;;;4.04;59.86;101416.50;5062429;28;20036;-71
2023/03/17 06:34:33;;;;;;;5.75;0.98;;;;;;;4.16;59.86;101408.16;5065593;28;20478;-72
2023/03/17 06:36:59;;;;;;;4.38;0.65;;;;;;;4.22;59.42;101411.25;5068057;28;20051;-71
2023/03/17 06:39:25;;;;;;;2.65;0.60;;;;;;;4.33;60.66;101414.06;5067857;28;20113;-72
2023/03/17 06:41:50;;;;;;;3.10;0.80;;;;;;;4.52;60.20;101419.06;5063072;28;20517;-72
2023/03/17 06:44:16;;;;;;;4.38;0.88;;;;;;;4.72;59.74;101417.19;5066911;28;20042;-71
2023/03/17 06:46:41;;;;;;;2.72;0.88;;;;;;;4.90;58.63;101414.41;5056333;28;21180;-71
2023/03/17 06:49:12;;;;;;;2.42;0.50;;;;;;;5.08;58.56;101417.72;5057992;28;20031;-73
2023/03/17 06:51:38;;;;;;;5.30;0.80;;;;;;;5.25;58.48;101421.91;5062237;28;20051;-71
2023/03/17 06:54:05;;;;;;;5.78;1.02;;;;;;;5.44;58.81;101421.69;5071844;28;20487;-71
2023/03/17 06:56:31;;;;;;;4.68;0.82;;;;;;;5.52;58.79;101422.91;5070589;28;20047;-72
2023/03/17 06:58:57;;;;;;;6.55;1.67;;;;;;;5.64;57.76;101416.22;5058758;28;20738;-72
2023/03/17 07:01:23;;;;;;;4.72;0.82;;;;;;;5.70;56.82;101415.00;5065825;28;20111;-72
2023/03/17 07:03:48;;;;;;;2.67;0.80;;;;;;;5.73;57.42;101426.00;5064567;28;20576;-72
2023/03/17 07:06:14;;;;;;;2.60;0.75;;;;;;;5.87;55.94;101417.44;5064819;28;20032;-72
2023/03/17 07:08:40;;;;;;;4.10;0.57;;;;;;;5.77;56.63;101421.47;5063199;28;20150;-71
2023/03/17 07:11:06;;;;;;;1.58;0.50;;;;;;;5.80;55.84;101416.13;5064127;28;20032;-72
2023/03/17 07:13:34;;;;;;;2.72;0.73;;;;;;;6.01;56.46;101425.22;5062027;28;20099;-72
2023/03/17 07:16:01;;;;;;;4.85;0.50;;;;;;;6.16;56.00;101423.44;5068740;28;20123;-73
2023/03/17 07:18:30;;;;;;;4.15;0.90;;;;;;;6.00;55.03;101420.97;5060619;28;20481;-73
2023/03/17 07:20:57;;;;;;;2.55;0.68;;;;;;;5.92;55.11;101420.59;5061797;28;20044;-71
2023/03/17 07:23:23;;;;;;;2.33;0.80;;;;;;;5.98;54.94;101422.81;5064541;28;20056;-72
2023/03/17 07:25:49;;;;;;;1.75;0.50;;;;;;;6.06;54.02;101423.19;5057345;28;20040;-72
2023/03/17 07:28:15;;;;;;;2.10;0.70;;;;;;;6.25;53.60;101423.72;5057732;28;20060;-72
2023/03/17 07:30:45;;;;;;;2.50;0.73;;;;;;;6.44;52.81;101420.84;5056299;28;20055;-72
2023/03/17 07:33:16;;;;;;;3.63;0.65;;;;;;;6.55;51.91;101415.03;5058446;28;20028;-72
2023/03/17 07:35:44;;;;;;;2.35;0.50;;;;;;;6.44;52.20;101413.09;5059933;28;20916;-73
2023/03/17 07:38:10;;;;;;;3.13;0.40;;;;;;;6.61;52.40;101405.13;5056994;28;20473;-72
2023/03/17 07:40:37;;;;;;;1.73;0.63;;;;;;;6.87;51.92;101408.63;5061547;28;20028;-72
2023/03/17 07:43:03;;;;;;;2.03;0.50;;;;;;;7.14;51.06;101412.94;5059818;28;20032;-72
2023/03/17 07:45:29;;;;;;;3.53;0.90;;;;;;;7.26;51.26;101415.59;5061874;28;20089;-73
2023/03/17 07:47:54;;;;;;;6.32;1.05;;;;;;;7.46;50.50;101408.28;5061570;28;20048;-73
2023/03/17 07:50:20;;;;;;;2.05;0.60;;;;;;;7.52;50.38;101413.88;5063979;28;20039;-73
2023/03/17 07:52:46;;;;;;;2.15;1.05;;;;;;;7.78;50.84;101408.69;5062027;28;20036;-73
2023/03/17 07:55:12;;;;;;;1.70;0.75;;;;;;;8.18;50.55;101399.84;5056189;28;20029;-72
2023/03/17 07:57:38;;;;;;;6.53;0.90;;;;;;;8.36;50.20;101399.53;5063024;28;20389;-73
2023/03/17 08:00:08;;;;;;;3.80;1.08;;;;;;;8.37;50.12;101402.03;5059476;28;20139;-72
2023/03/17 08:02:34;;;;;;;4.72;1.20;;;;;;;8.34;50.29;101399.63;5063035;28;20025;-70
2023/03/17 08:05:00;;;;;;;2.70;0.60;;;;;;;8.31;49.71;101403.25;5066495;28;20036;-72
2023/03/17 08:07:26;;;;;;;3.95;0.70;;;;;;;8.57;50.05;101403.19;5059762;28;20032;-73
2023/03/17 08:09:51;;;;;;;5.45;0.60;;;;;;;8.79;48.50;101408.53;5063496;28;20397;-73
2023/03/17 08:12:17;;;;;;;1.75;0.60;;;;;;;8.99;47.31;101394.91;5064403;28;20354;-73
2023/03/17 08:14:42;;;;;;;2.42;0.50;;;;;;;8.95;47.60;101393.50;5064475;28;20075;-73
2023/03/17 08:17:08;;;;;;;3.80;0.68;;;;;;;9.17;47.12;101397.13;5059239;28;20040;-73
2023/03/17 08:19:33;;;;;;;2.83;0.68;;;;;;;9.13;46.11;101390.47;5067433;28;20048;-73
2023/03/17 08:21:59;;;;;;;3.03;0.52;;;;;;;9.04;46.40;101393.75;5060984;28;20043;-72
2023/03/17 08:24:25;;;;;;;1.58;0.50;;;;;;;9.16;45.43;101400.66;5063182;28;20036;-72
2023/03/17 08:26:51;;;;;;;2.78;0.50;;;;;;;9.57;47.05;101394.97;5064811;28;20040;-72
2023/03/17 08:29:17;;;;;;;2.42;0.60;;;;;;;9.78;46.23;101392.53;5061162;28;20427;-70
2023/03/17 08:31:43;;;;;;;1.05;0.50;;;;;;;9.85;46.48;101393.72;5067159;28;20831;-71
2023/03/17 08:34:08;;;;;;;3.22;0.40;;;;;;;10.18;45.59;101383.28;5061671;28;20028;-73
2023/03/17 08:36:34;;;;;;;2.35;0.57;;;;;;;10.10;46.34;101385.66;5065664;28;20107;-73
2023/03/17 08:39:00;;;;;;;4.32;0.57;;;;;;;10.12;45.69;101380.34;5065675;28;20044;-72
2023/03/17 08:41:27;;;;;;;1.50;0.43;;;;;;;11.10;44.74;101379.41;5064178;28;20085;-73
2023/03/17 08:43:53;;;;;;;1.40;0.40;;;;;;;11.79;43.58;101382.34;5062613;28;20121;-72
2023/03/17 08:46:22;;;;;;;2.45;0.52;;;;;;;11.71;43.06;101373.47;5056000;28;20052;-73
2023/03/17 08:48:49;;;;;;;1.98;0.60;;;;;;;12.47;42.83;101379.94;5058440;28;20060;-73
2023/03/17 08:51:16;;;;;;;2.15;0.50;;;;;;;13.58;41.54;101375.94;5066691;28;20032;-73
2023/03/17 08:53:42;;;;;;;1.70;0.50;;;;;;;14.07;39.86;101366.13;5063538;28;20127;-74
2023/03/17 08:56:08;;;;;;;1.48;0.50;;;;;;;14.74;39.02;101364.88;5065522;28;20450;-74
2023/03/17 08:58:36;;;;;;;1.40;0.47;;;;;;;15.62;37.49;101354.41;5060915;28;20032;-73
2023/03/17 09:01:03;;;;;;;2.92;0.55;;;;;;;16.83;35.65;101352.19;5063906;28;20396;-73
2023/03/17 09:03:29;;;;;;;3.92;0.50;;;;;;;16.51;36.06;101355.59;5062847;28;20109;-73
2023/03/17 09:05:55;;;;;;;4.53;0.65;;;;;;;17.35;34.72;101354.47;5063516;28;20039;-73
2023/03/17 09:08:21;;;;;;;1.50;0.43;;;;;;;17.50;33.38;101350.13;5062488;28;20195;-73
2023/03/17 09:10:47;;;;;;;5.15;0.60;;;;;;;16.49;34.58;101352.28;5062508;28;20028;-73
2023/03/17 09:13:13;;;;;;;2.65;0.40;;;;;;;14.80;37.19;101348.53;5058171;28;20342;-73
2023/03/17 09:15:39;;;;;;;3.88;0.30;;;;;;;13.03;41.11;101351.34;5063068;28;20033;-73
2023/03/17 09:18:05;;;;;;;2.63;0.40;;;;;;;11.87;42.09;101343.31;5064389;28;20033;-71
2023/03/17 09:20:31;;;;;;;2.17;0.57;;;;;;;11.43;43.81;101339.25;5061187;28;20023;-72
2023/03/17 09:22:57;;;;;;;4.57;0.40;;;;;;;11.10;41.33;101348.09;5062959;28;20041;-72
2023/03/17 09:25:23;;;;;;;2.63;0.57;;;;;;;11.04;43.25;101348.59;5066810;28;20039;-72
2023/03/17 09:27:49;;;;;;;1.00;0.32;;;;;;;10.96;42.38;101345.78;5061211;28;20040;-72
2023/03/17 09:30:18;;;;;;;2.60;0.82;;;;;;;10.87;44.11;101344.75;5061529;28;20066;-73
2023/03/17 09:32:44;;;;;;;1.52;0.40;;;;;;;10.80;44.23;101348.84;5062655;28;20032;-72
2023/03/17 09:35:10;;;;;;;2.35;0.50;;;;;;;10.87;42.51;101336.13;5065537;28;20056;-72
2023/03/17 09:37:36;;;;;;;4.15;0.50;;;;;;;11.02;42.25;101339.25;5065207;28;20104;-73
2023/03/17 09:40:06;;;;;;;1.77;0.55;;;;;;;10.96;42.22;101338.78;5062528;28;20055;-70
2023/03/17 09:43:00;;;;;;;2.72;0.60;;;;;;;10.69;41.84;101333.25;5068158;28;20043;-73
2023/03/17 09:45:40;;;;;;;3.40;1.10;;;;;;;10.70;44.54;101342.72;5065866;28;20085;-73
2023/03/17 09:48:31;;;;;;;4.40;1.27;;;;;;;10.70;44.72;101337.50;5063694;28;20129;-73
2023/03/17 09:51:01;;;;;;;15.75;2.88;;;;;;;10.83;45.69;101339.94;5058985;28;20067;-73
2023/03/17 09:53:42;;;;;;;6.80;2.53;;;;;;;10.77;46.59;101330.00;5067749;28;20366;-73
2023/03/17 09:56:16;;;;;;;5.32;2.70;;;;;;;10.82;45.81;101335.69;5068247;28;20035;-73
2023/03/17 09:59:17;;;;;;;3.95;2.53;;;;;;;10.96;45.51;101325.75;5061272;28;20029;-73
2023/03/17 10:01:42;;;;;;;3.17;2.35;;;;;;;10.98;46.65;101334.28;5066616;28;20119;-73
2023/03/17 10:04:10;;;;;;;3.63;2.08;;;;;;;10.89;46.66;101331.59;5068688;28;20112;-73
2023/03/17 10:06:45;;;;;;;4.85;2.63;;;;;;;11.07;45.56;101332.69;5063241;28;20041;-73
2023/03/17 10:09:50;;;;;;;5.60;2.55;;;;;;;11.09;44.38;101324.75;5060029;28;20037;-73
2023/03/17 10:12:18;;;;;;;6.22;2.25;;;;;;;10.93;46.40;101320.78;5065317;28;20385;-73
2023/03/17 10:15:05;;;;;;;7.05;2.95;;;;;;;11.10;44.57;101323.81;5067791;28;20033;-73
2023/03/17 10:17:35;;;;;;;4.30;2.50;;;;;;;11.26;46.19;101326.81;5062313;28;20131;-74
2023/03/17 10:20:24;;;;;;;3.13;2.45;;;;;;;11.33;45.23;101322.72;5066298;28;20347;-73
2023/03/17 10:22:59;;;;;;;8.25;2.20;;;;;;;11.38;44.38;101319.69;5058708;28;20107;-73
2023/03/17 10:25:31;;;;;;;4.90;2.20;;;;;;;11.37;45.91;101320.66;5066427;28;20119;-73
2023/03/17 10:28:18;;;;;;;4.22;2.30;;;;;;;11.22;45.83;101315.78;5063761;28;20380;-73
2023/03/17 10:30:43;;;;;;;5.78;2.47;;;;;;;11.23;47.37;101314.84;5060894;28;20056;-73
2023/03/17 10:33:09;;;;;;;5.63;2.65;;;;;;;11.33;46.76;101312.28;5062218;28;20040;-74
2023/03/17 10:35:38;;;;;;;5.75;2.67;;;;;;;11.34;46.82;101307.91;5064380;28;20028;-73
2023/03/17 10:38:18;;;;;;;7.68;3.33;;;;;;;11.34;46.78;101313.94;5063899;28;20564;-72
2023/03/17 10:40:56;;;;;;;6.90;3.25;;;;;;;11.48;46.79;101315.38;5061006;28;20132;-72
2023/03/17 10:43:26;;;;;;;5.15;2.95;;;;;;;11.60;47.66;101312.56;5063419;28;20036;-72
2023/03/17 10:46:01;;;;;;;9.88;5.05;;;;;;;11.54;46.22;101300.03;5067042;28;20123;-72
2023/03/17 10:48:29;;;;;;;8.73;3.05;;;;;;;11.57;47.92;101304.97;5062000;28;20481;-72
2023/03/17 10:50:57;;;;;;;5.30;3.35;;;;;;;11.72;48.12;101304.63;5061732;28;20056;-72
2023/03/17 10:53:28;;;;;;;6.32;2.97;;;;;;;11.57;48.23;101304.16;5067118;28;20060;-73
2023/03/17 10:56:05;;;;;;;7.50;3.60;;;;;;;11.47;48.85;101308.50;5060100;28;20037;-73
2023/03/17 10:58:54;;;;;;;8.38;4.25;;;;;;;11.43;49.33;101302.72;5065598;28;20469;-72
2023/03/17 11:01:28;;;;;;;7.00;3.47;;;;;;;11.47;49.99;101309.31;5065136;28;20048;-72
2023/03/17 11:03:54;;;;;;;8.45;3.67;;;;;;;11.48;49.56;101299.72;5065192;28;20146;-71
2023/03/17 11:06:32;;;;;;;8.02;3.58;;;;;;;11.44;50.27;101293.94;5068075;28;20028;-72
2023/03/17 11:09:06;;;;;;;6.93;3.05;;;;;;;11.52;49.83;101298.50;5065926;28;20493;-73
2023/03/17 11:11:40;;;;;;;6.00;3.20;;;;;;;11.47;50.36;101301.50;5064572;28;20745;-73
2023/03/17 11:14:15;;;;;;;7.00;3.53;;;;;;;11.66;50.23;101297.34;5066251;28;20025;-73
2023/03/17 11:17:03;;;;;;;7.97;3.28;;;;;;;11.65;49.64;101293.88;5063728;28;20433;-72
2023/03/17 11:19:34;;;;;;;8.20;4.03;;;;;;;11.74;50.38;101289.66;5064296;28;20039;-73
2023/03/17 11:22:08;;;;;;;7.55;4.32;;;;;;;11.79;50.44;101284.91;5065812;28;20116;-72
2023/03/17 11:24:46;;;;;;;7.55;3.95;;;;;;;11.74;50.50;101289.66;5065750;28;20039;-72
2023/03/17 11:27:31;;;;;;;8.75;4.30;;;;;;;11.71;49.72;101279.50;5066311;28;20044;-73
2023/03/17 11:30:16;;;;;;;7.10;3.95;;;;;;;11.75;50.46;101279.09;5061720;28;20516;-72
2023/03/17 11:32:56;;;;;;;7.90;3.75;;;;;;;11.78;50.91;101276.25;5060728;28;20040;-72
2023/03/17 11:35:37;;;;;;;8.18;4.03;;;;;;;11.71;50.55;101280.31;5062211;28;20037;-72
2023/03/17 11:38:35;;;;;;;6.85;3.65;;;;;;;11.90;50.62;101269.94;5062955;28;20509;-72
2023/03/17 11:41:03;;;;;;;7.05;3.88;;;;;;;11.99;51.17;101268.31;5064516;28;20040;-72
2023/03/17 11:43:46;;;;;;;7.90;3.58;;;;;;;11.99;50.81;101265.72;5067309;28;20033;-73
2023/03/17 11:46:23;;;;;;;10.57;4.63;;;;;;;11.94;50.88;101254.84;5066369;28;20033;-72
2023/03/17 11:49:03;;;;;;;5.47;3.75;;;;;;;11.78;50.87;101257.97;5065123;28;20028;-72
2023/03/17 11:51:45;;;;;;;7.03;3.90;;;;;;;11.80;50.39;101250.84;5060019;28;20499;-71
2023/03/17 11:54:13;;;;;;;5.70;3.03;;;;;;;12.01;50.90;101250.72;5062524;28;20071;-72
2023/03/17 11:56:50;;;;;;;7.90;3.83;;;;;;;12.03;50.88;101245.38;5064380;28;20127;-71
2023/03/17 11:59:58;;;;;;;10.20;3.78;;;;;;;11.98;50.78;101245.78;5063098;28;20107;-71